Time;durP1;ratioP1;P1;durP2;ratioP2;P2;SDS_P1;SDS_P2;PMS_P1;PMS_P2;Temp;Humidity;BMP_temperature;BMP_pressure;BME280_temperature;BME280_humidity;BME280_pressure;Samples;Min_cycle;Max_cycle;Signal;HPM_P1;HPM_P2
2022/06/23 00:00:04;;;;;;;4.95;2.05;;;;;;;19.63;46.94;99526.13;6239604;23;19996;-76
2022/06/23 00:02:33;;;;;;;5.35;2.80;;;;;;;19.63;47.16;99530.88;6240024;23;20062;-75
2022/06/23 00:05:01;;;;;;;5.05;2.35;;;;;;;19.58;48.38;99524.38;6238937;23;20012;-74
2022/06/23 00:07:29;;;;;;;4.70;2.38;;;;;;;19.45;47.65;99522.63;6211500;23;20055;-74
2022/06/23 00:09:56;;;;;;;5.60;2.42;;;;;;;19.38;48.38;99519.59;6239286;23;20033;-76
2022/06/23 00:12:32;;;;;;;4.82;2.67;;;;;;;19.34;49.06;99525.75;6239780;23;20030;-76
2022/06/23 00:15:00;;;;;;;6.55;2.35;;;;;;;19.37;48.71;99518.75;6239511;23;20015;-81
2022/06/23 00:17:28;;;;;;;4.22;2.20;;;;;;;19.26;49.22;99521.09;6240128;23;20083;-82
2022/06/23 00:19:55;;;;;;;4.63;2.40;;;;;;;19.20;49.15;99523.19;6239462;23;20000;-82
2022/06/23 00:22:24;;;;;;;5.93;2.95;;;;;;;19.15;49.79;99520.63;6239234;23;20012;-81
2022/06/23 00:24:53;;;;;;;7.10;2.85;;;;;;;19.17;49.56;99525.81;6239764;23;20436;-81
2022/06/23 00:27:21;;;;;;;2.97;2.15;;;;;;;19.21;49.16;99519.31;6243057;23;20016;-82
2022/06/23 00:29:47;;;;;;;6.75;3.03;;;;;;;19.20;49.41;99523.19;6242911;23;20028;-82
2022/06/23 00:32:14;;;;;;;4.95;2.25;;;;;;;19.09;49.41;99521.91;6242987;23;20336;-82
2022/06/23 00:34:42;;;;;;;4.05;2.35;;;;;;;19.00;50.41;99525.50;6243132;23;20015;-82
2022/06/23 00:37:17;;;;;;;4.63;2.45;;;;;;;18.98;50.58;99524.19;6239490;23;20070;-77
2022/06/23 00:39:54;;;;;;;5.60;2.40;;;;;;;18.99;51.53;99520.31;6238179;23;19996;-77
2022/06/23 00:42:26;;;;;;;8.93;2.70;;;;;;;19.05;50.98;99520.94;6210061;23;20015;-77
2022/06/23 00:45:01;;;;;;;8.05;3.17;;;;;;;18.97;51.74;99519.81;6237374;23;20004;-77
2022/06/23 00:47:33;;;;;;;4.80;3.00;;;;;;;18.76;52.43;99515.78;6243122;23;20000;-86
2022/06/23 00:50:10;;;;;;;5.82;3.28;;;;;;;18.82;52.46;99512.84;6243529;23;19997;-77
2022/06/23 00:52:44;;;;;;;10.23;4.25;;;;;;;18.73;52.51;99513.66;6236786;23;20012;-76
2022/06/23 00:55:40;;;;;;;7.20;3.42;;;;;;;18.71;52.77;99515.97;6239261;23;20058;-79
2022/06/23 00:58:18;;;;;;;9.07;2.92;;;;;;;18.83;52.81;99514.47;6240984;23;20400;-79
2022/06/23 01:00:44;;;;;;;5.57;3.28;;;;;;;18.88;52.34;99511.53;6244753;23;20000;-86
2022/06/23 01:03:16;;;;;;;6.03;3.30;;;;;;;18.80;52.73;99510.41;6247993;23;20005;-88
2022/06/23 01:05:48;;;;;;;22.45;3.72;;;;;;;18.83;53.22;99520.00;6247506;23;20008;-85
2022/06/23 01:08:32;;;;;;;7.60;3.20;;;;;;;18.81;53.06;99517.56;6247379;23;20004;-86
2022/06/23 01:11:10;;;;;;;4.95;2.83;;;;;;;18.70;54.33;99516.28;6245826;23;20004;-74
2022/06/23 01:13:47;;;;;;;6.88;3.63;;;;;;;18.55;53.87;99508.16;6241546;23;20008;-74
2022/06/23 01:16:22;;;;;;;8.35;3.92;;;;;;;18.46;54.33;99510.13;6243533;23;20012;-85
2022/06/23 01:18:54;;;;;;;5.03;3.28;;;;;;;18.51;54.22;99495.34;6247894;23;20010;-85
2022/06/23 01:21:29;;;;;;;8.02;3.55;;;;;;;18.60;54.14;99495.34;6244628;23;20057;-76
2022/06/23 01:24:19;;;;;;;5.38;3.25;;;;;;;18.79;53.64;99493.03;6241120;23;20482;-77
2022/06/23 01:26:58;;;;;;;8.35;3.25;;;;;;;18.54;53.91;99501.03;6243945;23;20015;-82
2022/06/23 01:29:48;;;;;;;4.43;2.58;;;;;;;18.50;54.37;99502.81;6246168;23;20004;-82
2022/06/23 01:32:29;;;;;;;4.40;2.80;;;;;;;18.52;54.80;99500.53;6242151;23;20396;-76
2022/06/23 01:35:00;;;;;;;6.00;3.40;;;;;;;18.40;55.18;99492.09;6241203;23;20018;-76
2022/06/23 01:37:35;;;;;;;5.78;3.22;;;;;;;18.38;55.33;99497.13;6244487;23;20679;-82
2022/06/23 01:40:06;;;;;;;7.60;3.72;;;;;;;18.39;55.00;99490.47;6245341;23;20404;-82
2022/06/23 01:42:47;;;;;;;7.20;3.40;;;;;;;18.40;55.60;99497.63;6245955;23;20600;-82
2022/06/23 01:45:34;;;;;;;4.75;3.15;;;;;;;18.49;55.23;99490.13;6245266;23;20022;-82
2022/06/23 01:51:37;;;;;;;7.35;4.38;;;;;;;18.40;55.54;99489.34;6241178;23;20022;-75
2022/06/23 01:54:20;;;;;;;5.05;3.60;;;;;;;17.96;56.58;99492.81;6241115;23;20004;-75
2022/06/23 01:56:57;;;;;;;5.13;2.92;;;;;;;18.23;56.28;99492.91;6243824;23;20016;-85
2022/06/23 01:59:45;;;;;;;5.22;3.60;;;;;;;18.29;56.33;99492.41;6247719;23;20012;-86
2022/06/23 02:02:23;;;;;;;7.47;4.03;;;;;;;18.14;56.61;99479.09;6241934;23;20022;-74
2022/06/23 02:04:58;;;;;;;6.13;3.83;;;;;;;17.90;57.21;99481.13;6213205;23;20024;-75
2022/06/23 02:07:39;;;;;;;6.32;3.67;;;;;;;17.95;57.29;99480.19;6238866;23;20004;-74
2022/06/23 02:10:18;;;;;;;6.05;3.65;;;;;;;17.97;56.84;99480.69;6240114;23;20532;-74
2022/06/23 02:12:54;;;;;;;9.95;3.45;;;;;;;18.03;57.21;99484.09;6240560;23;20004;-75
2022/06/23 02:15:38;;;;;;;6.70;4.13;;;;;;;17.84;57.01;99474.16;6240387;23;20008;-75
2022/06/23 02:18:33;;;;;;;5.75;3.83;;;;;;;17.93;57.57;99475.00;6240878;23;20004;-74
2022/06/23 02:21:19;;;;;;;7.53;3.97;;;;;;;17.97;57.25;99470.47;6242751;23;20011;-85
2022/06/23 02:24:01;;;;;;;8.27;3.75;;;;;;;18.04;57.57;99478.25;6247180;23;20008;-85
2022/06/23 02:26:36;;;;;;;8.40;4.22;;;;;;;18.02;56.91;99483.25;6216482;23;20016;-85
2022/06/23 02:29:12;;;;;;;7.90;4.50;;;;;;;17.98;57.41;99485.03;6216863;23;20036;-85
2022/06/23 02:31:57;;;;;;;21.58;5.50;;;;;;;17.89;57.61;99489.75;6216407;23;20019;-83
2022/06/23 02:34:30;;;;;;;10.48;2.95;;;;;;;17.85;57.77;99479.38;6216022;23;20001;-82
2022/06/23 02:37:18;;;;;;;6.43;3.40;;;;;;;17.93;57.58;99485.22;6211036;23;20096;-76
2022/06/23 02:39:53;;;;;;;6.22;3.30;;;;;;;17.81;58.31;99489.41;6210914;23;20015;-76
2022/06/23 02:42:35;;;;;;;5.63;3.53;;;;;;;17.74;58.25;99489.06;6214534;23;20012;-82
2022/06/23 02:45:40;;;;;;;6.80;4.05;;;;;;;17.40;59.92;99491.38;6212056;23;20000;-74
2022/06/23 02:48:18;;;;;;;7.72;4.18;;;;;;;17.50;59.37;99493.03;6209475;23;20071;-74
2022/06/23 02:50:58;;;;;;;9.55;3.90;;;;;;;17.49;60.26;99505.19;6215120;23;20329;-84
2022/06/23 02:53:52;;;;;;;8.27;4.25;;;;;;;17.32;60.63;99514.19;6216132;23;19996;-85
2022/06/23 02:56:38;;;;;;;11.52;4.72;;;;;;;16.97;61.23;99512.00;6210185;23;20013;-74
2022/06/23 02:59:13;;;;;;;7.55;3.75;;;;;;;16.91;61.69;99508.59;6210608;23;20079;-79
2022/06/23 03:01:47;;;;;;;8.10;3.97;;;;;;;17.05;61.17;99514.00;6212101;23;20009;-79
2022/06/23 03:04:23;;;;;;;7.38;4.15;;;;;;;17.12;61.07;99508.91;6212448;23;20001;-83
2022/06/23 03:07:15;;;;;;;9.40;5.10;;;;;;;17.18;60.64;99506.84;6215303;23;20081;-83
2022/06/23 03:09:45;;;;;;;5.45;3.17;;;;;;;17.20;61.00;99498.25;6215262;23;20099;-82
2022/06/23 03:12:34;;;;;;;8.07;4.22;;;;;;;17.08;61.72;99501.56;6214618;23;20092;-82
2022/06/23 03:15:16;;;;;;;7.03;4.07;;;;;;;17.09;61.50;99494.91;6211633;23;20009;-74
2022/06/23 03:18:09;;;;;;;9.00;5.03;;;;;;;17.16;62.21;99503.59;6209705;23;20005;-74
2022/06/23 03:20:49;;;;;;;6.43;3.53;;;;;;;17.14;61.90;99505.84;6203355;23;20083;-74
2022/06/23 03:23:23;;;;;;;6.85;4.05;;;;;;;17.04;62.02;99502.19;6208859;23;20313;-74
2022/06/23 03:25:54;;;;;;;;;;;;;;;16.97;62.19;99501.00;6235119;23;20012;-74
2022/06/23 03:28:37;;;;;;;8.70;4.38;;;;;;;17.00;62.06;99505.91;6239490;23;20347;-74
2022/06/23 03:31:15;;;;;;;11.30;3.90;;;;;;;17.02;61.86;99506.41;6240058;23;20008;-74
2022/06/23 03:33:46;;;;;;;6.80;3.80;;;;;;;16.78;63.79;99507.53;6240027;23;20004;-79
2022/06/23 03:36:19;;;;;;;12.90;5.07;;;;;;;16.84;63.49;99506.25;6240503;23;20019;-79
2022/06/23 03:41:46;;;;;;;9.20;4.80;;;;;;;17.15;63.11;99502.75;6239870;23;20011;-75
2022/06/23 03:44:24;;;;;;;11.13;5.70;;;;;;;16.98;63.55;99500.72;6241689;23;20027;-86
2022/06/23 03:46:56;;;;;;;6.18;3.92;;;;;;;16.93;63.47;99500.81;6245979;23;20008;-85
2022/06/23 03:49:42;;;;;;;6.57;4.15;;;;;;;16.61;64.92;99494.47;6245356;23;20030;-82
2022/06/23 03:52:37;;;;;;;13.20;4.07;;;;;;;16.71;64.72;99488.72;6244004;23;20008;-82
2022/06/23 03:55:16;;;;;;;5.75;3.33;;;;;;;16.92;64.33;99497.25;6241787;23;20000;-82
2022/06/23 03:57:48;;;;;;;6.82;4.07;;;;;;;17.03;63.92;99494.25;6244032;23;20361;-81
2022/06/23 04:00:22;;;;;;;7.18;3.65;;;;;;;17.15;62.98;99480.72;6241722;23;20004;-76
2022/06/23 04:02:58;;;;;;;5.70;3.63;;;;;;;17.23;62.89;99484.66;6213582;23;20035;-76
2022/06/23 04:05:29;;;;;;;8.13;4.05;;;;;;;17.26;61.50;99481.28;6243359;23;20012;-82
2022/06/23 04:08:00;;;;;;;7.75;3.78;;;;;;;17.24;61.66;99483.53;6244035;23;20008;-82
2022/06/23 04:10:37;;;;;;;9.38;4.45;;;;;;;17.23;62.37;99487.41;6240806;23;20093;-75
2022/06/23 04:13:27;;;;;;;18.80;4.47;;;;;;;16.95;63.76;99497.75;6239852;23;20336;-74
2022/06/23 04:15:55;;;;;;;7.32;4.50;;;;;;;16.82;63.83;99499.47;6239346;23;20028;-75
2022/06/23 04:18:23;;;;;;;7.57;4.38;;;;;;;16.78;64.12;99502.03;6240032;23;20087;-74
2022/06/23 04:21:10;;;;;;;7.40;4.03;;;;;;;17.13;63.32;99494.00;6239530;23;20000;-77
2022/06/23 04:23:41;;;;;;;14.20;3.72;;;;;;;17.19;63.51;99493.88;6240556;23;20367;-82
2022/06/23 04:26:18;;;;;;;7.50;3.97;;;;;;;17.13;63.65;99496.75;6244041;23;20016;-82
2022/06/23 04:28:47;;;;;;;8.60;4.55;;;;;;;17.23;63.21;99494.84;6244898;23;20087;-79
2022/06/23 04:31:18;;;;;;;8.13;4.03;;;;;;;17.43;62.54;99484.44;6242583;23;20074;-78
2022/06/23 04:33:46;;;;;;;7.68;4.18;;;;;;;17.31;62.69;99488.56;6243205;23;20359;-76
2022/06/23 04:36:30;;;;;;;9.55;5.15;;;;;;;17.51;62.62;99475.38;6240837;23;20083;-76
2022/06/23 04:38:58;;;;;;;12.75;4.18;;;;;;;17.48;63.28;99484.28;6242158;23;20008;-75
2022/06/23 04:41:29;;;;;;;11.05;3.92;;;;;;;17.55;63.55;99492.91;6242024;23;20083;-75
2022/06/23 04:43:59;;;;;;;8.75;4.80;;;;;;;17.70;62.74;99493.56;6241601;23;20019;-74
2022/06/23 04:46:40;;;;;;;7.32;4.40;;;;;;;17.74;62.82;99492.63;6240877;23;20570;-75
2022/06/23 04:49:15;;;;;;;10.38;4.18;;;;;;;17.85;62.06;99503.38;6242829;23;20012;-83
2022/06/23 04:51:49;;;;;;;11.43;4.72;;;;;;;17.95;61.84;99505.00;6246431;23;20535;-82
2022/06/23 04:54:26;;;;;;;6.68;3.65;;;;;;;17.94;61.98;99501.44;6247059;23;20138;-82
2022/06/23 04:57:04;;;;;;;10.80;4.03;;;;;;;17.98;62.42;99490.56;6245836;23;20008;-81
2022/06/23 04:59:49;;;;;;;6.25;3.55;;;;;;;18.15;61.74;99495.31;6244073;23;20380;-74
2022/06/23 05:02:34;;;;;;;9.80;3.47;;;;;;;18.17;61.59;99503.28;6240969;23;20019;-75
2022/06/23 05:05:04;;;;;;;6.60;3.95;;;;;;;18.29;61.10;99506.22;6241543;23;20004;-76
2022/06/23 05:07:50;;;;;;;9.50;3.67;;;;;;;18.49;60.77;99512.22;6240911;23;20036;-76
2022/06/23 05:10:22;;;;;;;16.85;6.40;;;;;;;18.58;60.70;99511.41;6241665;23;20382;-76
2022/06/23 05:12:52;;;;;;;7.57;3.25;;;;;;;18.65;58.81;99500.72;6241416;23;20514;-76
2022/06/23 05:15:40;;;;;;;5.40;3.38;;;;;;;18.77;59.28;99500.84;6240862;23;20438;-77
2022/06/23 05:18:14;;;;;;;7.90;3.70;;;;;;;18.71;59.96;99502.16;6229936;23;20067;-77
2022/06/23 05:20:40;;;;;;;5.63;3.53;;;;;;;18.78;60.71;99502.47;6241218;23;20011;-75
2022/06/23 05:23:14;;;;;;;7.20;4.20;;;;;;;18.81;60.84;99497.44;6240600;23;20004;-74
2022/06/23 05:25:44;;;;;;;8.95;5.82;;;;;;;18.75;61.21;99500.34;6240805;23;20717;-75
2022/06/23 05:28:24;;;;;;;27.50;4.53;;;;;;;18.82;61.18;99499.03;6240565;23;20043;-74
2022/06/23 05:30:57;;;;;;;9.82;4.25;;;;;;;18.77;61.28;99505.56;6241093;23;20035;-74
2022/06/23 05:33:27;;;;;;;7.13;3.97;;;;;;;18.74;60.17;99504.25;6240915;23;20081;-74
2022/06/23 05:36:05;;;;;;;6.10;3.20;;;;;;;18.86;60.72;99497.25;6240950;23;20012;-75
2022/06/23 05:38:46;;;;;;;8.10;3.75;;;;;;;18.79;61.12;99497.75;6241122;23;20367;-78
2022/06/23 05:41:19;;;;;;;12.80;4.65;;;;;;;18.93;60.72;99500.34;6240529;23;20004;-76
2022/06/23 05:43:47;;;;;;;7.73;4.33;;;;;;;19.01;60.83;99491.22;6241505;23;20047;-79
2022/06/23 05:46:22;;;;;;;9.30;4.10;;;;;;;19.07;61.64;99497.38;6241889;23;20008;-79
2022/06/23 05:49:25;;;;;;;6.82;2.92;;;;;;;18.99;60.91;99504.56;6242929;23;20023;-84
2022/06/23 05:52:04;;;;;;;9.80;4.72;;;;;;;19.12;61.01;99504.66;6246658;23;20016;-84
2022/06/23 05:54:48;;;;;;;10.60;5.13;;;;;;;19.19;60.87;99510.53;6244696;23;20014;-75
2022/06/23 05:57:27;;;;;;;8.43;5.03;;;;;;;19.33;60.98;99509.50;6240948;23;20008;-74
2022/06/23 06:00:11;;;;;;;7.13;4.25;;;;;;;19.43;61.21;99513.84;6240509;23;20439;-74
2022/06/23 06:02:52;;;;;;;8.65;4.13;;;;;;;19.39;61.97;99508.19;6240825;23;20308;-74
2022/06/23 06:05:29;;;;;;;6.47;4.10;;;;;;;19.55;61.34;99507.63;6240760;23;20008;-77
2022/06/23 06:07:55;;;;;;;10.07;3.45;;;;;;;19.58;60.88;99509.75;6240931;23;20067;-77
2022/06/23 06:10:25;;;;;;;19.33;5.65;;;;;;;19.66;61.44;99510.84;6241431;23;20011;-79
2022/06/23 06:12:51;;;;;;;11.63;4.38;;;;;;;19.71;61.67;99507.88;6242167;23;20008;-79
2022/06/23 06:15:22;;;;;;;6.82;4.25;;;;;;;19.76;61.31;99509.66;6241297;23;20119;-76
2022/06/23 06:17:50;;;;;;;8.75;4.72;;;;;;;19.82;60.84;99508.31;6240835;23;20015;-76
2022/06/23 06:20:21;;;;;;;10.02;4.78;;;;;;;19.87;62.20;99505.34;6241353;23;20005;-79
2022/06/23 06:23:05;;;;;;;9.57;4.15;;;;;;;19.83;62.48;99499.69;6241613;23;20482;-79
2022/06/23 06:25:34;;;;;;;7.55;3.58;;;;;;;19.92;61.92;99496.88;6240065;23;20038;-76
2022/06/23 06:28:11;;;;;;;8.15;3.90;;;;;;;19.97;61.28;99498.66;6240798;23;20008;-76
2022/06/23 06:30:41;;;;;;;9.25;4.43;;;;;;;20.04;61.20;99500.84;6241278;23;20049;-79
2022/06/23 06:33:13;;;;;;;11.18;3.55;;;;;;;20.12;60.80;99490.91;6240855;23;20079;-79
2022/06/23 06:35:42;;;;;;;8.43;3.78;;;;;;;20.20;60.06;99500.31;6241365;23;20004;-84
2022/06/23 06:38:12;;;;;;;6.97;4.25;;;;;;;20.27;60.51;99501.38;6241179;23;20008;-84
2022/06/23 06:40:39;;;;;;;9.43;5.78;;;;;;;20.32;59.99;99505.09;6240193;23;20074;-76
2022/06/23 06:43:12;;;;;;;7.75;3.85;;;;;;;20.37;61.12;99505.72;6239767;23;20022;-76
2022/06/23 06:45:37;;;;;;;7.38;3.75;;;;;;;20.40;60.50;99510.56;6241642;23;20012;-84
2022/06/23 06:48:11;;;;;;;8.32;3.72;;;;;;;20.48;60.52;99508.06;6241583;23;20402;-84
2022/06/23 06:50:45;;;;;;;9.80;3.95;;;;;;;20.49;59.72;99502.19;6241254;23;20008;-79
2022/06/23 06:53:39;;;;;;;9.48;4.07;;;;;;;20.52;61.02;99503.47;6240795;23;19996;-79
2022/06/23 06:56:28;;;;;;;13.65;5.07;;;;;;;20.64;59.01;99508.25;6233463;23;20011;-85
2022/06/23 06:59:19;;;;;;;16.42;4.32;;;;;;;20.71;60.31;99508.50;6246219;23;20012;-75
2022/06/23 07:01:50;;;;;;;7.47;4.35;;;;;;;20.77;60.13;99511.88;6239943;23;20625;-76
2022/06/23 07:04:29;;;;;;;7.95;4.68;;;;;;;20.75;59.85;99514.16;6240250;23;20015;-77
2022/06/23 07:07:06;;;;;;;18.90;4.85;;;;;;;20.81;60.29;99525.88;6240232;23;20007;-76
2022/06/23 07:09:54;;;;;;;5.65;3.47;;;;;;;20.92;60.45;99517.94;6239991;23;19996;-77
2022/06/23 07:12:30;;;;;;;7.63;4.00;;;;;;;20.99;59.57;99524.56;6239864;23;20000;-77
2022/06/23 07:15:17;;;;;;;8.15;4.45;;;;;;;21.09;59.24;99512.22;6240517;23;20097;-79
2022/06/23 07:17:50;;;;;;;9.32;3.65;;;;;;;21.21;58.82;99513.41;6240229;23;20012;-79
2022/06/23 07:20:42;;;;;;;7.25;3.90;;;;;;;21.34;57.88;99506.72;6239960;23;20016;-76
2022/06/23 07:23:21;;;;;;;9.35;4.35;;;;;;;21.48;58.28;99502.03;6239293;23;20043;-76
2022/06/23 07:25:52;;;;;;;9.05;3.47;;;;;;;21.55;57.86;99505.03;6246812;23;20019;-85
2022/06/23 07:28:46;;;;;;;10.25;4.45;;;;;;;21.57;57.36;99509.06;6246249;23;20501;-85
2022/06/23 07:31:19;;;;;;;7.35;3.90;;;;;;;21.88;57.01;99501.34;6239660;23;20011;-75
2022/06/23 07:33:53;;;;;;;10.98;4.13;;;;;;;21.93;57.96;99494.72;6240989;23;20016;-85
2022/06/23 07:36:26;;;;;;;7.20;4.13;;;;;;;22.14;57.77;99496.56;6246223;23;20000;-86
2022/06/23 07:39:10;;;;;;;9.10;5.57;;;;;;;22.21;57.03;99501.53;6246378;23;20004;-86
2022/06/23 07:41:51;;;;;;;11.98;4.28;;;;;;;22.20;57.00;99506.25;6246385;23;20058;-86
2022/06/23 07:44:23;;;;;;;7.50;4.50;;;;;;;22.39;57.15;99499.28;6246425;23;20004;-85
2022/06/23 07:46:48;;;;;;;7.03;4.55;;;;;;;22.66;56.72;99498.88;6246023;23;20008;-84
2022/06/23 07:49:14;;;;;;;10.27;4.47;;;;;;;22.85;55.45;99500.97;6245888;23;20341;-86
2022/06/23 07:51:41;;;;;;;15.93;6.40;;;;;;;22.82;55.41;99496.13;6246575;23;20004;-86
2022/06/23 07:54:09;;;;;;;7.22;4.57;;;;;;;22.96;55.06;99496.50;6245242;23;20012;-76
2022/06/23 07:56:39;;;;;;;8.40;4.63;;;;;;;23.00;54.63;99504.13;6239602;23;20019;-76
2022/06/23 07:59:11;;;;;;;9.85;5.60;;;;;;;23.01;54.81;99491.84;6241520;23;20078;-87
2022/06/23 08:01:48;;;;;;;7.35;3.88;;;;;;;23.12;54.23;99492.94;6246944;23;19996;-86
2022/06/23 08:04:44;;;;;;;10.27;5.05;;;;;;;23.36;53.81;99502.28;6244726;23;20004;-77
2022/06/23 08:07:11;;;;;;;8.82;5.32;;;;;;;23.47;53.11;99497.03;6240984;23;20675;-76
2022/06/23 08:09:48;;;;;;;8.55;4.97;;;;;;;23.48;52.59;99495.84;6215711;23;20028;-86
2022/06/23 08:18:59;;;;;;;8.18;3.58;;;;;;;23.75;51.01;99498.88;6174369;23;20454;-76
2022/06/23 08:21:33;;;;;;;18.83;6.10;;;;;;;24.07;49.30;99489.63;6244819;23;20099;-81
2022/06/23 08:24:25;;;;;;;8.00;4.10;;;;;;;24.13;50.18;99485.41;6245655;23;20058;-86
2022/06/23 08:26:55;;;;;;;9.43;4.75;;;;;;;24.05;50.20;99491.16;6243352;23;20088;-85
2022/06/23 08:29:27;;;;;;;7.35;4.20;;;;;;;24.21;50.10;99482.75;6246419;23;20062;-76
2022/06/23 08:31:53;;;;;;;15.80;5.45;;;;;;;24.29;50.20;99472.59;6215478;23;20039;-76
2022/06/23 08:34:18;;;;;;;11.02;4.47;;;;;;;24.23;50.28;99474.88;6241872;23;20298;-75
2022/06/23 08:36:48;;;;;;;8.82;5.28;;;;;;;24.32;50.28;99471.88;6240453;23;20012;-74
2022/06/23 08:39:26;;;;;;;7.28;4.20;;;;;;;24.46;49.72;99472.19;6241565;23;20003;-77
2022/06/23 08:42:04;;;;;;;8.13;4.38;;;;;;;24.58;49.53;99479.56;6241086;23;20001;-76
2022/06/23 08:44:51;;;;;;;7.53;4.47;;;;;;;24.80;48.02;99482.75;6241141;23;20015;-77
2022/06/23 08:47:21;;;;;;;25.30;4.60;;;;;;;24.87;47.81;99484.06;6241206;23;20000;-77
2022/06/23 08:49:55;;;;;;;9.07;4.03;;;;;;;25.16;46.52;99484.63;6241503;23;20036;-75
2022/06/23 08:52:43;;;;;;;8.88;4.20;;;;;;;25.34;44.94;99472.97;6241669;23;20032;-75
2022/06/23 08:55:13;;;;;;;6.22;3.78;;;;;;;25.52;44.43;99473.25;6241767;23;20004;-75
2022/06/23 08:58:05;;;;;;;12.63;4.35;;;;;;;25.65;44.15;99471.03;6241453;23;20001;-75
2022/06/23 09:00:55;;;;;;;8.88;4.45;;;;;;;25.77;43.32;99473.66;6240966;23;20534;-74
2022/06/23 09:03:32;;;;;;;6.35;4.10;;;;;;;25.81;43.58;99467.34;6240448;23;20004;-75
2022/06/23 09:06:18;;;;;;;11.38;4.30;;;;;;;25.97;43.61;99476.34;6240712;23;20045;-75
2022/06/23 09:09:18;;;;;;;7.60;3.78;;;;;;;26.13;43.20;99466.16;6241525;23;20038;-85
2022/06/23 09:11:56;;;;;;;12.30;4.60;;;;;;;26.25;42.87;99468.72;6185460;23;20015;-85
2022/06/23 09:14:40;;;;;;;9.07;3.95;;;;;;;26.37;44.14;99470.44;6246857;23;20539;-83
2022/06/23 09:17:25;;;;;;;10.07;4.80;;;;;;;26.58;42.73;99466.34;6245134;23;20435;-81
2022/06/23 09:20:31;;;;;;;8.88;4.38;;;;;;;26.80;41.15;99464.56;6246885;23;20000;-87
2022/06/23 09:23:30;;;;;;;8.52;3.78;;;;;;;26.87;41.76;99468.63;6239223;23;20091;-87
2022/06/23 09:26:16;;;;;;;10.10;3.55;;;;;;;26.92;41.63;99469.09;6247721;23;20533;-87
2022/06/23 09:28:51;;;;;;;9.55;5.07;;;;;;;27.05;41.15;99460.41;6248198;23;20475;-87
2022/06/23 09:31:21;;;;;;;11.88;3.80;;;;;;;27.13;41.16;99448.09;6248132;23;20000;-87
2022/06/23 09:34:32;;;;;;;7.53;4.43;;;;;;;27.09;40.27;99452.88;6247409;23;20438;-77
2022/06/23 09:37:07;;;;;;;7.72;4.13;;;;;;;27.28;40.56;99451.03;6167948;23;20039;-77
2022/06/23 09:40:09;;;;;;;7.97;4.75;;;;;;;27.39;39.48;99453.91;6241250;23;20027;-79
2022/06/23 09:43:06;;;;;;;9.25;3.30;;;;;;;27.60;39.84;99458.06;6241474;23;20008;-78
2022/06/23 09:45:46;;;;;;;7.38;3.92;;;;;;;27.79;39.15;99454.22;6246940;23;20000;-87
2022/06/23 09:48:30;;;;;;;5.95;3.78;;;;;;;27.78;39.67;99452.63;6246979;23;20000;-87
2022/06/23 09:51:01;;;;;;;;;;;;;;;27.88;37.41;99453.88;6241083;23;20012;-76
2022/06/23 09:53:30;;;;;;;9.40;3.63;;;;;;;28.04;38.70;99463.94;6240321;23;19911;-76
2022/06/23 09:56:28;;;;;;;10.07;4.20;;;;;;;28.20;38.05;99450.41;6240314;23;20017;-76
2022/06/23 09:59:20;;;;;;;8.52;3.67;;;;;;;28.30;37.07;99448.84;6240496;23;20026;-76
2022/06/23 10:02:04;;;;;;;12.60;3.95;;;;;;;28.34;36.02;99446.06;6240976;23;20439;-76
2022/06/23 10:04:32;;;;;;;7.07;3.38;;;;;;;28.50;37.45;99444.91;6240669;23;20008;-78
2022/06/23 10:07:15;;;;;;;7.78;4.25;;;;;;;28.54;36.99;99440.94;6240287;23;20597;-77
2022/06/23 10:09:54;;;;;;;32.70;4.07;;;;;;;28.57;36.10;99444.97;6241374;23;20000;-77
2022/06/23 10:12:28;;;;;;;6.75;3.45;;;;;;;28.73;36.26;99441.78;6240534;23;20004;-77
2022/06/23 10:15:12;;;;;;;7.55;3.45;;;;;;;28.78;35.71;99437.78;6244300;23;20128;-87
2022/06/23 10:17:47;;;;;;;14.07;4.60;;;;;;;28.89;36.07;99437.78;6246662;23;19996;-87
2022/06/23 10:20:22;;;;;;;5.72;3.50;;;;;;;29.12;35.90;99443.06;6243006;23;20028;-79
2022/06/23 10:23:12;;;;;;;6.72;3.85;;;;;;;29.09;34.74;99438.22;6240804;23;20000;-79
2022/06/23 10:25:53;;;;;;;8.80;4.40;;;;;;;29.19;36.11;99433.81;6240752;23;20062;-79
2022/06/23 10:28:35;;;;;;;4.97;3.63;;;;;;;29.28;34.22;99435.41;6240293;23;20004;-79
2022/06/23 10:31:19;;;;;;;8.27;3.70;;;;;;;29.19;35.39;99433.81;6240579;23;20038;-78
2022/06/23 10:34:08;;;;;;;7.30;3.40;;;;;;;29.28;34.15;99435.41;6240685;23;20294;-76
2022/06/23 10:36:55;;;;;;;5.80;3.70;;;;;;;29.52;34.55;99432.97;6239677;23;20011;-76
2022/06/23 10:40:09;;;;;;;4.85;3.20;;;;;;;29.34;32.96;99423.41;6240621;23;20016;-79
2022/06/23 10:42:51;;;;;;;23.88;6.13;;;;;;;29.08;33.38;99421.81;6146951;23;20011;-79
2022/06/23 10:45:34;;;;;;;10.02;3.42;;;;;;;29.40;33.74;99420.97;6240023;23;20011;-75
2022/06/23 10:48:13;;;;;;;10.30;5.05;;;;;;;29.48;33.52;99422.56;6240420;23;20011;-75
2022/06/23 10:50:56;;;;;;;4.90;3.45;;;;;;;29.64;33.69;99415.72;6240445;23;20081;-76
2022/06/23 10:53:28;;;;;;;;;;;;;;;29.80;33.38;99408.91;6240636;23;20019;-75
2022/06/23 10:56:05;;;;;;;5.43;3.58;;;;;;;30.08;33.37;99412.81;6239766;23;19910;-75
2022/06/23 10:58:50;;;;;;;15.50;4.15;;;;;;;29.99;32.13;99399.19;6239957;23;20044;-75
2022/06/23 11:02:09;;;;;;;28.58;6.13;;;;;;;30.09;32.59;99410.78;6240194;23;20008;-75
2022/06/23 11:05:08;;;;;;;8.88;3.50;;;;;;;30.03;32.17;99401.97;6146055;23;20029;-77
2022/06/23 11:08:13;;;;;;;5.53;3.22;;;;;;;30.26;32.70;99400.66;6239579;23;20095;-78
2022/06/23 11:10:44;;;;;;;5.30;3.55;;;;;;;30.46;33.50;99398.19;6245864;23;20015;-87
2022/06/23 11:13:25;;;;;;;8.95;4.45;;;;;;;30.56;32.63;99396.50;6246086;23;20004;-87
2022/06/23 11:16:03;;;;;;;7.18;4.00;;;;;;;30.65;31.99;99396.06;6219527;23;20004;-87
2022/06/23 11:18:44;;;;;;;4.43;3.22;;;;;;;30.87;32.59;99391.09;6245968;23;20008;-87
2022/06/23 11:21:28;;;;;;;5.75;3.72;;;;;;;30.90;31.57;99386.63;6245787;23;20000;-87
2022/06/23 11:24:07;;;;;;;8.68;4.22;;;;;;;30.86;30.86;99391.44;6244717;23;20012;-75
2022/06/23 11:26:42;;;;;;;8.20;4.53;;;;;;;30.79;30.40;99386.69;6240225;23;20158;-75
2022/06/23 11:29:22;;;;;;;9.00;4.45;;;;;;;31.02;31.47;99388.13;6240034;23;20000;-77
2022/06/23 11:32:10;;;;;;;4.68;3.17;;;;;;;30.96;30.40;99384.16;6240512;23;20004;-78
2022/06/23 11:34:54;;;;;;;7.47;3.88;;;;;;;31.07;30.85;99376.44;6240461;23;20071;-77
2022/06/23 11:37:28;;;;;;;5.90;3.03;;;;;;;31.31;30.38;99378.63;6239993;23;20076;-77
2022/06/23 11:40:11;;;;;;;5.97;3.50;;;;;;;31.56;31.26;99375.59;6240548;23;20035;-77
2022/06/23 11:42:55;;;;;;;5.18;3.65;;;;;;;31.67;30.70;99369.81;6239627;23;20007;-78
2022/06/23 11:45:34;;;;;;;4.78;3.53;;;;;;;31.76;30.49;99371.31;6240039;23;20062;-77
2022/06/23 11:48:12;;;;;;;10.02;3.95;;;;;;;31.64;29.65;99370.66;6240200;23;20078;-77
2022/06/23 11:50:48;;;;;;;6.60;3.25;;;;;;;31.71;29.86;99375.44;6240188;23;20000;-77
2022/06/23 11:53:41;;;;;;;4.93;3.60;;;;;;;31.72;29.60;99371.38;6239482;23;20042;-76
2022/06/23 11:56:22;;;;;;;5.25;3.55;;;;;;;31.64;29.70;99370.66;6239366;23;20113;-76
2022/06/23 11:59:07;;;;;;;9.38;4.07;;;;;;;31.88;30.69;99365.13;6240077;23;20000;-76
2022/06/23 12:01:33;;;;;;;5.30;3.00;;;;;;;31.91;29.64;99360.69;6239871;23;20004;-76
2022/06/23 12:04:13;;;;;;;7.93;3.90;;;;;;;32.07;29.92;99360.09;6240579;23;20011;-86
2022/06/23 12:06:59;;;;;;;7.53;3.38;;;;;;;32.11;30.17;99351.59;6245537;23;20007;-86
2022/06/23 12:09:39;;;;;;;6.68;3.58;;;;;;;32.18;30.14;99356.34;6244005;23;20008;-78
2022/06/23 12:12:06;;;;;;;5.63;4.50;;;;;;;32.26;29.53;99346.56;6240221;23;20676;-80
2022/06/23 12:14:31;;;;;;;7.25;3.35;;;;;;;32.34;29.32;99356.47;6240251;23;20044;-76
2022/06/23 12:17:20;;;;;;;7.68;3.20;;;;;;;32.13;29.88;99344.31;6239005;23;20000;-76
2022/06/23 12:19:59;;;;;;;5.07;3.38;;;;;;;32.45;29.75;99353.50;6239851;23;20016;-76
2022/06/23 12:22:43;;;;;;;5.45;3.13;;;;;;;32.77;28.68;99347.81;6239241;23;20042;-77
2022/06/23 12:25:36;;;;;;;7.63;3.30;;;;;;;32.81;28.71;99345.75;6240205;23;20023;-79
2022/06/23 12:28:29;;;;;;;9.32;3.72;;;;;;;32.44;28.77;99343.47;6240217;23;20004;-79
2022/06/23 12:31:02;;;;;;;;;;;;;;;32.72;28.49;99332.16;6241069;23;20761;-79
2022/06/23 12:34:00;;;;;;;9.98;3.72;;;;;;;32.73;28.08;99339.38;6240055;23;19919;-79
2022/06/23 12:36:51;;;;;;;9.27;3.90;;;;;;;32.82;28.73;99331.19;6245533;23;20012;-86